createdAt,value
2023-04-28T00:00:39.119Z,96421.28
2023-04-28T00:03:07.072Z,96426.31
2023-04-28T00:05:35.001Z,96430.91
2023-04-28T00:08:04.343Z,96431.00
2023-04-28T00:10:32.166Z,96425.63
2023-04-28T00:12:59.959Z,96429.34
2023-04-28T00:15:27.795Z,96433.66
2023-04-28T00:17:55.710Z,96433.94
2023-04-28T00:20:23.519Z,96430.19
2023-04-28T00:22:51.285Z,96427.53
2023-04-28T00:25:20.379Z,96418.19
2023-04-28T00:27:48.152Z,96416.25
2023-04-28T00:30:16.080Z,96422.63
2023-04-28T00:32:43.947Z,96419.41
2023-04-28T00:35:11.784Z,96408.81
2023-04-28T00:37:40.294Z,96415.09
2023-04-28T00:40:09.280Z,96407.03
2023-04-28T00:42:38.900Z,96402.59
2023-04-28T00:45:07.691Z,96402.25
2023-04-28T00:47:36.215Z,96400.31
2023-04-28T00:50:06.456Z,96396.72
2023-04-28T00:52:34.328Z,96401.88
2023-04-28T00:55:02.239Z,96399.78
2023-04-28T00:57:32.186Z,96386.72
2023-04-28T01:00:02.574Z,96397.16
2023-04-28T01:02:31.034Z,96392.97
2023-04-28T01:05:00.312Z,96400.78
2023-04-28T01:07:28.510Z,96397.31
2023-04-28T01:09:56.861Z,96399.78
2023-04-28T01:12:30.791Z,96397.03
2023-04-28T01:14:59.422Z,96392.72
2023-04-28T01:17:28.730Z,96377.81
2023-04-28T01:19:56.881Z,96374.06
2023-04-28T01:22:24.648Z,96372.31
2023-04-28T01:24:54.581Z,96381.28
2023-04-28T01:27:24.687Z,96369.88
2023-04-28T01:29:52.668Z,96372.31
2023-04-28T01:32:21.057Z,96357.28
2023-04-28T01:34:48.927Z,96362.41
2023-04-28T01:37:16.744Z,96356.44
2023-04-28T01:39:44.514Z,96354.34
2023-04-28T01:42:13.654Z,96353.66
2023-04-28T01:44:41.399Z,96366.03
2023-04-28T01:47:12.021Z,96356.16
2023-04-28T01:49:39.856Z,96350.16
2023-04-28T01:52:08.966Z,96347.78
2023-04-28T01:54:37.463Z,96348.75
2023-04-28T01:57:06.037Z,96357.50
2023-04-28T01:59:35.350Z,96345.97
2023-04-28T02:02:03.639Z,96348.50
2023-04-28T02:04:32.102Z,96344.28
2023-04-28T02:06:59.936Z,96340.69
2023-04-28T02:09:27.966Z,96331.94
2023-04-28T02:11:57.828Z,96326.66
2023-04-28T02:14:25.669Z,96325.66
2023-04-28T02:16:55.675Z,96331.94
2023-04-28T02:19:23.469Z,96328.44
2023-04-28T02:21:51.584Z,96326.66
2023-04-28T02:24:19.358Z,96336.94
2023-04-28T02:26:47.096Z,96330.56
2023-04-28T02:29:14.929Z,96335.03
2023-04-28T02:31:42.752Z,96329.03
2023-04-28T02:34:11.918Z,96329.72
2023-04-28T02:36:40.622Z,96326.09
2023-04-28T02:39:08.961Z,96323.47
2023-04-28T02:41:36.762Z,96326.97
2023-04-28T02:44:04.549Z,96330.44
2023-04-28T02:46:32.438Z,96331.16
2023-04-28T02:49:00.267Z,96332.09
2023-04-28T02:51:29.777Z,96336.44
2023-04-28T02:53:57.669Z,96338.09
2023-04-28T02:56:25.731Z,96344.38
2023-04-28T02:58:53.735Z,96347.03
2023-04-28T03:01:21.550Z,96344.50
2023-04-28T03:03:49.685Z,96339.22
2023-04-28T03:06:17.639Z,96337.41
2023-04-28T03:08:47.128Z,96337.41
2023-04-28T03:11:14.882Z,96333.91
2023-04-28T03:13:42.912Z,96327.81
2023-04-28T03:16:10.780Z,96325.00
2023-04-28T03:18:38.795Z,96320.97
2023-04-28T03:21:06.781Z,96318.19
2023-04-28T03:23:34.636Z,96319.88
2023-04-28T03:26:04.864Z,96325.88
2023-04-28T03:28:32.965Z,96322.50
2023-04-28T03:31:01.343Z,96318.63
2023-04-28T03:33:29.259Z,96306.13
2023-04-28T03:35:59.328Z,96314.03
2023-04-28T03:38:27.170Z,96315.03
2023-04-28T03:40:55.352Z,96312.38
2023-04-28T03:43:30.349Z,96320.03
2023-04-28T03:46:16.560Z,96307.53
2023-04-28T03:48:46.099Z,96305.72
2023-04-28T03:51:14.574Z,96298.66
2023-04-28T03:53:42.998Z,96296.84
2023-04-28T03:56:10.981Z,96299.47
2023-04-28T03:58:41.795Z,96298.50
2023-04-28T04:01:09.604Z,96301.97
2023-04-28T04:03:37.579Z,96294.50
2023-04-28T04:06:06.236Z,96296.75
2023-04-28T04:08:34.493Z,96296.47
2023-04-28T04:11:02.266Z,96290.91
2023-04-28T04:13:31.190Z,96288.97
2023-04-28T04:16:00.526Z,96284.28
2023-04-28T04:18:28.535Z,96292.06
2023-04-28T04:21:11.371Z,96288.28
2023-04-28T04:23:39.499Z,96288.19
2023-04-28T04:26:07.504Z,96284.53
2023-04-28T04:28:37.112Z,96284.28
2023-04-28T04:31:09.303Z,96288.47
2023-04-28T04:33:37.990Z,96282.34
2023-04-28T04:36:08.315Z,96275.09
2023-04-28T04:38:36.185Z,96279.44
2023-04-28T04:41:13.841Z,96282.91
2023-04-28T04:43:41.706Z,96275.69
2023-04-28T04:46:10.910Z,96280.84
2023-04-28T04:48:39.267Z,96266.50
2023-04-28T04:51:07.158Z,96265.53
2023-04-28T04:53:35.892Z,96263.72
2023-04-28T04:56:04.047Z,96262.03
2023-04-28T04:58:33.573Z,96259.41
2023-04-28T05:01:15.024Z,96265.41
2023-04-28T05:03:43.409Z,96274.28
2023-04-28T05:06:11.505Z,96278.19
2023-04-28T05:08:47.724Z,96279.28
2023-04-28T05:11:15.791Z,96275.69
2023-04-28T05:13:43.705Z,96267.47
2023-04-28T05:16:11.640Z,96272.03
2023-04-28T05:19:01.169Z,96269.41
2023-04-28T05:21:28.993Z,96285.97
2023-04-28T05:23:57.622Z,96276.38
2023-04-28T05:26:26.149Z,96274.44
2023-04-28T05:28:57.289Z,96273.34
2023-04-28T05:31:25.096Z,96273.75
2023-04-28T05:33:53.642Z,96285.72
2023-04-28T05:36:22.788Z,96278.47
2023-04-28T05:38:50.641Z,96283.91
2023-04-28T05:41:19.346Z,96270.41
2023-04-28T05:43:47.728Z,96271.53
2023-04-28T05:46:29.175Z,96267.88
2023-04-28T05:48:59.301Z,96273.06
2023-04-28T05:51:31.360Z,96266.81
2023-04-28T05:53:59.537Z,96272.94
2023-04-28T05:56:30.111Z,96275.41
2023-04-28T05:59:00.857Z,96271.94
2023-04-28T06:01:28.614Z,96266.66
2023-04-28T06:03:58.141Z,96273.47
2023-04-28T06:06:27.737Z,96274.31
2023-04-28T06:08:57.217Z,96263.88
2023-04-28T06:11:27.048Z,96255.09
2023-04-28T06:13:54.847Z,96260.13
2023-04-28T06:16:23.604Z,96259.84
2023-04-28T06:18:53.262Z,96255.25
2023-04-28T06:21:23.048Z,96255.13
2023-04-28T06:23:50.844Z,96264.59
2023-04-28T06:26:20.164Z,96260.97
2023-04-28T06:28:47.921Z,96254.84
2023-04-28T06:31:15.816Z,96255.53
2023-04-28T06:33:43.584Z,96259.84
2023-04-28T06:36:13.910Z,96252.34
2023-04-28T06:38:42.745Z,96253.03
2023-04-28T06:41:11.101Z,96249.25
2023-04-28T06:43:41.329Z,96254.31
2023-04-28T06:46:12.410Z,96247.06
2023-04-28T06:48:40.416Z,96252.38
2023-04-28T06:51:08.168Z,96239.94
2023-04-28T06:53:37.142Z,96243.16
2023-04-28T06:56:11.158Z,96241.06
2023-04-28T06:58:41.023Z,96247.06
2023-04-28T07:01:09.460Z,96242.06
2023-04-28T07:03:37.355Z,96246.38
2023-04-28T07:06:06.490Z,96237.00
2023-04-28T07:08:35.636Z,96243.84
2023-04-28T07:11:04.973Z,96240.06
2023-04-28T07:13:33.234Z,96231.47
2023-04-28T07:16:03.267Z,96233.69
2023-04-28T07:18:31.242Z,96241.06
2023-04-28T07:20:59.142Z,96238.41
2023-04-28T07:23:26.907Z,96239.25
2023-04-28T07:25:54.703Z,96233.81
2023-04-28T07:28:22.443Z,96236.16
2023-04-28T07:30:50.272Z,96230.75
2023-04-28T07:33:20.037Z,96227.81
2023-04-28T07:35:49.680Z,96229.75
2023-04-28T07:38:18.466Z,96225.44
2023-04-28T07:40:46.324Z,96234.78
2023-04-28T07:43:14.461Z,96220.56
2023-04-28T07:45:45.556Z,96222.25
2023-04-28T07:48:13.548Z,96225.72
2023-04-28T07:50:43.476Z,96225.84
2023-04-28T07:53:11.989Z,96227.41
2023-04-28T07:55:41.952Z,96235.34
2023-04-28T07:58:10.027Z,96240.91
2023-04-28T08:00:40.905Z,96240.34
2023-04-28T08:03:09.103Z,96246.22
2023-04-28T08:05:37.777Z,96252.75
2023-04-28T08:08:07.549Z,96261.00
2023-04-28T08:10:35.313Z,96255.56
2023-04-28T08:13:03.505Z,96258.22
2023-04-28T08:15:31.376Z,96263.53
2023-04-28T08:18:00.283Z,96261.53
2023-04-28T08:20:29.539Z,96263.09
2023-04-28T08:22:57.250Z,96259.59
2023-04-28T08:25:26.929Z,96266.56
2023-04-28T08:27:57.246Z,96265.34
2023-04-28T08:30:28.416Z,96266.88
2023-04-28T08:32:56.513Z,96258.66
2023-04-28T08:35:24.499Z,96263.53
2023-04-28T08:37:53.446Z,96269.66
2023-04-28T08:40:21.897Z,96262.41
2023-04-28T08:42:51.115Z,96267.16
2023-04-28T08:45:19.149Z,96268.38
2023-04-28T08:47:50.501Z,96267.81
2023-04-28T08:50:22.190Z,96268.38
2023-04-28T08:52:50.768Z,96274.22
2023-04-28T08:55:19.869Z,96274.78
2023-04-28T08:57:52.719Z,96277.72
2023-04-28T09:00:21.372Z,96281.06
2023-04-28T09:02:49.485Z,96288.03
2023-04-28T09:05:17.663Z,96287.06
2023-04-28T09:07:47.840Z,96292.50
2023-04-28T09:10:21.169Z,96295.84
2023-04-28T09:12:49.950Z,96297.50
2023-04-28T09:15:31.223Z,96294.84
2023-04-28T09:18:00.558Z,96303.63
2023-04-28T09:20:29.904Z,96305.19
2023-04-28T09:23:13.071Z,96301.81
2023-04-28T09:25:40.866Z,96304.44
2023-04-28T09:28:22.012Z,96313.50
2023-04-28T09:30:51.253Z,96309.16
2023-04-28T09:33:19.210Z,96305.75
2023-04-28T09:35:47.796Z,96303.19
2023-04-28T09:38:15.748Z,96310.56
2023-04-28T09:40:54.340Z,96302.09
2023-04-28T09:43:26.596Z,96307.06
2023-04-28T09:45:56.257Z,96304.41
2023-04-28T09:48:32.230Z,96304.88
2023-04-28T09:51:00.778Z,96293.56
2023-04-28T09:53:29.931Z,96298.34
2023-04-28T09:55:59.415Z,96299.13
2023-04-28T09:58:28.807Z,96297.22
2023-04-28T10:00:59.294Z,96297.59
2023-04-28T10:03:29.899Z,96300.78
2023-04-28T10:06:00.532Z,96308.28
2023-04-28T10:08:29.834Z,96303.19
2023-04-28T10:10:58.753Z,96299.41
2023-04-28T10:13:27.094Z,96297.94
2023-04-28T10:15:56.066Z,96303.25
2023-04-28T10:18:25.838Z,96313.06
2023-04-28T10:20:58.695Z,96305.22
2023-04-28T10:23:57.979Z,96313.53
2023-04-28T10:26:37.418Z,96312.38
2023-04-28T10:29:05.406Z,96307.44
2023-04-28T10:31:34.887Z,96309.75
2023-04-28T10:34:23.219Z,96310.78
2023-04-28T10:36:55.494Z,96313.66
2023-04-28T10:39:23.941Z,96313.50
2023-04-28T10:41:52.875Z,96309.16
2023-04-28T10:44:43.828Z,96312.19
2023-04-28T10:47:12.906Z,96307.06
2023-04-28T10:50:08.224Z,96309.03
2023-04-28T10:52:53.053Z,96304.63
2023-04-28T10:55:36.574Z,96299.19
2023-04-28T10:58:33.062Z,96306.03
2023-04-28T11:01:26.154Z,96304.59
2023-04-28T11:04:00.512Z,96303.44
2023-04-28T11:06:32.252Z,96305.91
2023-04-28T11:09:02.230Z,96311.72
2023-04-28T11:11:30.438Z,96307.19
2023-04-28T11:14:32.187Z,96316.88
2023-04-28T11:17:03.177Z,96307.53
2023-04-28T11:19:33.275Z,96301.25
2023-04-28T11:22:04.292Z,96312.19
2023-04-28T11:24:32.376Z,96305.88
2023-04-28T11:27:02.234Z,96305.25
2023-04-28T11:29:35.308Z,96302.94
2023-04-28T11:32:03.590Z,96302.63
2023-04-28T11:34:31.899Z,96299.13
2023-04-28T11:36:59.719Z,96306.28
2023-04-28T11:39:30.343Z,96302.09
2023-04-28T11:41:59.131Z,96292.78
2023-04-28T11:44:29.381Z,96294.28
2023-04-28T11:47:00.885Z,96296.28
2023-04-28T11:49:30.715Z,96298.66
2023-04-28T11:52:00.369Z,96288.16
2023-04-28T11:54:30.664Z,96298.66
2023-04-28T11:56:59.559Z,96286.16
2023-04-28T11:59:29.083Z,96297.50
2023-04-28T12:01:59.676Z,96294.00
2023-04-28T12:04:28.953Z,96295.03
2023-04-28T12:07:02.186Z,96282.53
2023-04-28T12:09:31.838Z,96291.06
2023-04-28T12:12:02.550Z,96285.44
2023-04-28T12:14:32.025Z,96287.28
2023-04-28T12:16:59.851Z,96287.13
2023-04-28T12:19:27.613Z,96284.84
2023-04-28T12:22:06.282Z,96282.84
2023-04-28T12:24:36.055Z,96288.84
2023-04-28T12:27:18.401Z,96290.16
2023-04-28T12:29:47.385Z,96284.16
2023-04-28T12:32:15.604Z,96284.84
2023-04-28T12:34:45.441Z,96298.34
2023-04-28T12:37:13.628Z,96285.50
2023-04-28T12:39:43.690Z,96283.84
2023-04-28T12:42:11.713Z,96282.50
2023-04-28T12:44:40.802Z,96281.38
2023-04-28T12:47:10.965Z,96282.50
2023-04-28T12:49:39.281Z,96284.69
2023-04-28T12:52:07.429Z,96275.34
2023-04-28T12:54:35.172Z,96281.94
2023-04-28T12:57:05.442Z,96277.97
2023-04-28T12:59:33.452Z,96278.13
2023-04-28T13:02:01.350Z,96280.78
2023-04-28T13:04:30.173Z,96274.44
2023-04-28T13:06:58.742Z,96273.13
2023-04-28T13:09:27.218Z,96276.31
2023-04-28T13:11:55.482Z,96259.19
2023-04-28T13:14:24.687Z,96256.88
2023-04-28T13:16:53.381Z,96248.53
2023-04-28T13:19:21.211Z,96249.88
2023-04-28T13:21:48.943Z,96248.69
2023-04-28T13:24:17.120Z,96260.84
2023-04-28T13:26:45.323Z,96250.19
2023-04-28T13:29:14.365Z,96262.84
2023-04-28T13:31:43.552Z,96254.38
2023-04-28T13:34:16.030Z,96253.38
2023-04-28T13:36:44.362Z,96259.22
2023-04-28T13:39:14.500Z,96264.22
2023-04-28T13:41:42.539Z,96259.84
2023-04-28T13:44:10.641Z,96258.22
2023-04-28T13:46:38.579Z,96251.03
2023-04-28T13:49:07.740Z,96251.19
2023-04-28T13:51:35.486Z,96249.22
2023-04-28T13:54:04.635Z,96246.22
2023-04-28T13:56:32.844Z,96258.88
2023-04-28T13:59:00.704Z,96263.69
2023-04-28T14:01:28.760Z,96254.00
2023-04-28T14:03:56.747Z,96259.84
2023-04-28T14:06:26.114Z,96260.63
2023-04-28T14:08:54.107Z,96263.13
2023-04-28T14:11:22.577Z,96264.59
2023-04-28T14:13:50.528Z,96256.44
2023-04-28T14:16:18.550Z,96247.78
2023-04-28T14:18:46.334Z,96250.75
2023-04-28T14:21:14.067Z,96242.47
2023-04-28T14:23:43.143Z,96239.13
2023-04-28T14:26:10.953Z,96233.78
2023-04-28T14:28:38.818Z,96226.81
2023-04-28T14:31:08.763Z,96221.50
2023-04-28T14:33:37.070Z,96229.47
2023-04-28T14:36:05.277Z,96233.78
2023-04-28T14:38:33.145Z,96234.47
2023-04-28T14:41:02.305Z,96233.94
2023-04-28T14:43:30.094Z,96236.94
2023-04-28T14:45:58.459Z,96237.09
2023-04-28T14:48:26.733Z,96246.41
2023-04-28T14:50:54.513Z,96237.09
2023-04-28T14:53:22.437Z,96248.53
2023-04-28T14:55:50.486Z,96253.03
2023-04-28T14:58:20.023Z,96246.84
2023-04-28T15:00:48.971Z,96241.69
2023-04-28T15:03:16.927Z,96229.53
2023-04-28T15:05:44.818Z,96231.19
2023-04-28T15:08:12.687Z,96231.00
2023-04-28T15:10:40.887Z,96240.16
2023-04-28T15:13:08.844Z,96236.13
2023-04-28T15:15:38.202Z,96226.81
2023-04-28T15:18:06.155Z,96242.41
2023-04-28T15:20:34.356Z,96239.25
2023-04-28T15:23:02.251Z,96235.41
2023-04-28T15:25:30.165Z,96242.88
2023-04-28T15:27:58.278Z,96226.22
2023-04-28T15:30:26.086Z,96230.88
2023-04-28T15:32:55.378Z,96236.38
2023-04-28T15:35:23.243Z,96228.19
2023-04-28T15:37:53.428Z,96219.88
2023-04-28T15:40:21.970Z,96225.19
2023-04-28T15:42:51.737Z,96216.59
2023-04-28T15:45:21.641Z,96214.75
2023-04-28T15:47:50.831Z,96211.25
2023-04-28T15:50:20.770Z,96218.56
2023-04-28T15:52:52.525Z,96216.22
2023-04-28T15:55:22.411Z,96213.56
2023-04-28T15:57:52.401Z,96212.34
2023-04-28T16:00:21.389Z,96207.38
2023-04-28T16:02:49.763Z,96218.16
2023-04-28T16:05:17.758Z,96218.00
2023-04-28T16:07:47.608Z,96207.81
2023-04-28T16:10:19.745Z,96210.63
2023-04-28T16:12:47.590Z,96206.97
2023-04-28T16:15:18.456Z,96194.31
2023-04-28T16:17:47.685Z,96197.78
2023-04-28T16:20:15.811Z,96190.63
2023-04-28T16:22:43.725Z,96196.34
2023-04-28T16:25:12.923Z,96196.16
2023-04-28T16:27:42.084Z,96212.34
2023-04-28T16:30:11.895Z,96213.19
2023-04-28T16:32:40.764Z,96209.88
2023-04-28T16:35:15.160Z,96213.38
2023-04-28T16:37:43.964Z,96218.69
2023-04-28T16:40:15.050Z,96221.50
2023-04-28T16:42:44.972Z,96222.75
2023-04-28T16:45:14.288Z,96224.47
2023-04-28T16:47:46.656Z,96222.09
2023-04-28T16:50:15.799Z,96229.91
2023-04-28T16:52:44.308Z,96225.59
2023-04-28T16:55:13.471Z,96228.41
2023-04-28T16:57:41.546Z,96222.09
2023-04-28T17:00:11.957Z,96216.63
2023-04-28T17:02:39.852Z,96215.78
2023-04-28T17:05:08.407Z,96210.47
2023-04-28T17:07:36.511Z,96215.63
2023-04-28T17:10:04.686Z,96209.47
2023-04-28T17:12:33.901Z,96204.69
2023-04-28T17:15:02.217Z,96186.09
2023-04-28T17:17:30.038Z,96184.91
2023-04-28T17:19:59.856Z,96176.31
2023-04-28T17:22:28.039Z,96179.81
2023-04-28T17:24:56.153Z,96193.31
2023-04-28T17:27:24.382Z,96202.66
2023-04-28T17:29:54.290Z,96208.66
2023-04-28T17:32:22.300Z,96215.50
2023-04-28T17:34:50.076Z,96212.84
2023-04-28T17:37:18.010Z,96215.50
2023-04-28T17:39:45.835Z,96204.31
2023-04-28T17:42:13.887Z,96203.50
2023-04-28T17:44:42.559Z,96206.31
2023-04-28T17:47:11.991Z,96204.81
2023-04-28T17:49:41.772Z,96204.66
2023-04-28T17:52:10.549Z,96200.34
2023-04-28T17:54:38.955Z,96207.63
2023-04-28T17:57:07.204Z,96206.28
2023-04-28T17:59:39.766Z,96214.59
2023-04-28T18:02:11.770Z,96214.75
2023-04-28T18:04:41.864Z,96214.91
2023-04-28T18:07:10.053Z,96204.44
2023-04-28T18:09:38.684Z,96212.03
2023-04-28T18:12:08.732Z,96214.03
2023-04-28T18:14:36.873Z,96215.34
2023-04-28T18:17:04.698Z,96211.19
2023-04-28T18:19:33.875Z,96216.13
2023-04-28T18:22:02.138Z,96225.91
2023-04-28T18:24:30.115Z,96236.03
2023-04-28T18:26:58.579Z,96249.28
2023-04-28T18:29:27.673Z,96244.41
2023-04-28T18:31:56.374Z,96245.56
2023-04-28T18:34:24.453Z,96247.53
2023-04-28T18:36:53.861Z,96253.66
2023-04-28T18:39:21.709Z,96251.16
2023-04-28T18:41:49.657Z,96249.47
2023-04-28T18:44:19.016Z,96253.75
2023-04-28T18:46:46.887Z,96258.69
2023-04-28T18:49:15.800Z,96256.50
2023-04-28T18:51:43.784Z,96266.22
2023-04-28T18:54:15.857Z,96261.53
2023-04-28T18:56:44.415Z,96271.63
2023-04-28T18:59:12.721Z,96267.59
2023-04-28T19:01:40.703Z,96269.75
2023-04-28T19:04:09.039Z,96271.72
2023-04-28T19:06:37.199Z,96273.69
2023-04-28T19:09:05.086Z,96277.34
2023-04-28T19:11:34.365Z,96280.97
2023-04-28T19:14:02.287Z,96284.06
2023-04-28T19:16:30.149Z,96289.16
2023-04-28T19:18:58.343Z,96290.28
2023-04-28T19:21:26.736Z,96287.25
2023-04-28T19:23:55.061Z,96288.38
2023-04-28T19:26:22.936Z,96288.38
2023-04-28T19:28:52.239Z,96299.47
2023-04-28T19:31:20.134Z,96299.78
2023-04-28T19:33:48.870Z,96295.72
2023-04-28T19:36:17.024Z,96305.81
2023-04-28T19:38:44.900Z,96303.03
2023-04-28T19:41:12.713Z,96307.97
2023-04-28T19:43:40.659Z,96307.56
2023-04-28T19:46:10.129Z,96308.97
2023-04-28T19:48:38.021Z,96310.56
2023-04-28T19:51:05.923Z,96311.97
2023-04-28T19:53:35.360Z,96317.44
2023-04-28T19:56:03.248Z,96318.03
2023-04-28T19:58:31.687Z,96320.69
2023-04-28T20:00:59.573Z,96309.22
2023-04-28T20:03:29.924Z,96313.28
2023-04-28T20:05:57.884Z,96316.91
2023-04-28T20:08:26.021Z,96320.28
2023-04-28T20:10:54.430Z,96312.63
2023-04-28T20:13:22.255Z,96316.72
2023-04-28T20:15:50.508Z,96315.44
2023-04-28T20:18:18.454Z,96313.94
2023-04-28T20:20:47.607Z,96314.34
2023-04-28T20:23:16.104Z,96313.81
2023-04-28T20:25:43.915Z,96319.25
2023-04-28T20:28:11.694Z,96314.91
2023-04-28T20:30:41.953Z,96311.16
2023-04-28T20:33:10.400Z,96307.84
2023-04-28T20:35:38.715Z,96304.75
2023-04-28T20:38:08.066Z,96302.81
2023-04-28T20:40:37.065Z,96298.09
2023-04-28T20:43:05.072Z,96295.44
2023-04-28T20:45:34.513Z,96298.91
2023-04-28T20:48:03.876Z,96301.69
2023-04-28T20:50:33.342Z,96300.16
2023-04-28T20:53:01.427Z,96306.47
2023-04-28T20:55:31.071Z,96307.28
2023-04-28T20:57:58.868Z,96306.19
2023-04-28T21:00:27.158Z,96313.72
2023-04-28T21:02:55.262Z,96314.56
2023-04-28T21:05:24.107Z,96319.88
2023-04-28T21:07:52.695Z,96328.66
2023-04-28T21:10:20.585Z,96329.19
2023-04-28T21:12:50.038Z,96322.13
2023-04-28T21:15:18.088Z,96315.41
2023-04-28T21:17:45.985Z,96321.25
2023-04-28T21:20:14.645Z,96323.66
2023-04-28T21:22:42.510Z,96324.84
2023-04-28T21:25:10.774Z,96315.94
2023-04-28T21:27:38.577Z,96315.94
2023-04-28T21:30:10.288Z,96313.44
2023-04-28T21:32:38.954Z,96327.09
2023-04-28T21:35:07.932Z,96327.75
2023-04-28T21:37:35.803Z,96332.41
2023-04-28T21:40:03.788Z,96327.91
2023-04-28T21:42:32.003Z,96334.59
2023-04-28T21:44:59.908Z,96328.63
2023-04-28T21:47:29.829Z,96334.19
2023-04-28T21:49:58.666Z,96336.13
2023-04-28T21:52:26.530Z,96331.53
2023-04-28T21:54:54.798Z,96323.59
2023-04-28T21:57:22.665Z,96334.59
2023-04-28T21:59:50.708Z,96328.16
2023-04-28T22:02:18.898Z,96322.75
2023-04-28T22:04:49.219Z,96328.31
2023-04-28T22:07:17.425Z,96331.22
2023-04-28T22:09:45.537Z,96333.75
2023-04-28T22:12:13.709Z,96328.56
2023-04-28T22:14:41.792Z,96332.91
2023-04-28T22:17:09.953Z,96329.56
2023-04-28T22:19:37.918Z,96334.03
2023-04-28T22:22:07.642Z,96327.88
2023-04-28T22:24:36.617Z,96329.13
2023-04-28T22:27:05.462Z,96329.41
2023-04-28T22:29:33.291Z,96336.38
2023-04-28T22:32:02.680Z,96337.75
2023-04-28T22:34:30.788Z,96342.59
2023-04-28T22:36:58.632Z,96340.94
2023-04-28T22:39:27.902Z,96335.06
2023-04-28T22:41:55.809Z,96330.88
2023-04-28T22:44:23.631Z,96336.47
2023-04-28T22:46:51.758Z,96332.13
2023-04-28T22:49:24.465Z,96335.31
2023-04-28T22:51:52.517Z,96333.09
2023-04-28T22:54:20.483Z,96331.16
2023-04-28T22:56:51.363Z,96329.44
2023-04-28T22:59:22.160Z,96326.25
2023-04-28T23:01:50.256Z,96330.03
2023-04-28T23:04:20.421Z,96331.66
2023-04-28T23:06:48.537Z,96336.69
2023-04-28T23:09:16.401Z,96335.41
2023-04-28T23:11:44.258Z,96336.00
2023-04-28T23:14:13.576Z,96337.78
2023-04-28T23:16:42.041Z,96343.09
2023-04-28T23:19:09.852Z,96332.66
2023-04-28T23:21:38.065Z,96337.94
2023-04-28T23:24:07.478Z,96336.25
2023-04-28T23:26:35.292Z,96339.47
2023-04-28T23:29:03.154Z,96338.66
2023-04-28T23:31:33.024Z,96339.59
2023-04-28T23:34:00.919Z,96338.91
2023-04-28T23:36:29.013Z,96337.25
2023-04-28T23:38:56.842Z,96343.25
2023-04-28T23:41:24.708Z,96340.59
2023-04-28T23:43:52.993Z,96338.59
2023-04-28T23:46:21.380Z,96334.59
2023-04-28T23:48:50.713Z,96332.19
2023-04-28T23:51:19.198Z,96330.66
2023-04-28T23:53:46.989Z,96325.50
2023-04-28T23:56:15.379Z,96327.03
2023-04-28T23:58:43.313Z,96326.16
